Silver City, Idaho
Current Conditions -  °F | °C
As of 11:55 PM on Thursday 18 Dec 2014 (Local Time) from KMAN Reporting Station
Broken Clouds Broken Clouds  
Wind Chill: 37°   Ceiling: 9000
Heat Index: 37°   Visibility: 10mi
Dew Point: 36°   Wind: 3mph
Humidity: 93%   Direction: 160°SSE
Pressure: 30.08"   Gusts: NA
Location:  42.9915°N, 116.705°W
Report Text: KMAN 190655Z AUTO 16003KT 10SM BKN090 03/02 A3008 RMK AO1
Loading
Personal Weather Stations






























Interactive Weather Map New forecast layout! Learn more

10-Day Weather Forecast

Advertisements
Track Severe Weather on mobile